createdAt,value
2022-09-20T00:01:26.210Z,68.31
2022-09-20T00:03:58.298Z,68.21
2022-09-20T00:06:31.147Z,68.18
2022-09-20T00:08:59.753Z,68.39
2022-09-20T00:11:29.261Z,68.07
2022-09-20T00:13:58.612Z,68.32
2022-09-20T00:16:31.650Z,68.19
2022-09-20T00:19:01.339Z,68.47
2022-09-20T00:21:30.072Z,68.65
2022-09-20T00:23:57.664Z,68.57
2022-09-20T00:26:25.940Z,68.66
2022-09-20T00:28:52.566Z,68.67
2022-09-20T00:31:19.650Z,68.97
2022-09-20T00:34:04.942Z,68.83
2022-09-20T00:36:31.928Z,69.54
2022-09-20T00:39:00.931Z,69.59
2022-09-20T00:41:28.042Z,69.88
2022-09-20T00:43:55.490Z,69.98
2022-09-20T00:46:39.155Z,69.70
2022-09-20T00:49:18.048Z,69.68
2022-09-20T00:51:49.421Z,69.60
2022-09-20T00:54:20.725Z,69.46
2022-09-20T00:56:48.552Z,69.26
2022-09-20T00:59:19.915Z,69.24
2022-09-20T01:01:52.675Z,69.45
2022-09-20T01:04:22.855Z,69.59
2022-09-20T01:06:54.091Z,69.72
2022-09-20T01:09:20.856Z,69.67
2022-09-20T01:11:49.589Z,69.64
2022-09-20T01:14:22.276Z,69.43
2022-09-20T01:16:48.890Z,69.56
2022-09-20T01:19:47.529Z,69.27
2022-09-20T01:22:26.412Z,69.41
2022-09-20T01:25:09.949Z,69.53
2022-09-20T01:27:48.624Z,69.56
2022-09-20T01:30:19.972Z,69.48
2022-09-20T01:33:14.326Z,69.35
2022-09-20T01:35:46.467Z,69.49
2022-09-20T01:38:36.696Z,69.39
2022-09-20T01:41:19.074Z,69.65
2022-09-20T01:43:55.867Z,69.63
2022-09-20T01:46:34.556Z,69.56
2022-09-20T01:49:34.882Z,69.63
2022-09-20T01:52:44.009Z,69.66
2022-09-20T01:55:48.218Z,69.64
2022-09-20T01:58:20.720Z,69.85
2022-09-20T02:01:24.344Z,69.57
2022-09-20T02:04:08.796Z,69.87
2022-09-20T02:06:58.673Z,70.09
2022-09-20T02:09:31.126Z,70.16
2022-09-20T02:12:16.342Z,69.92
2022-09-20T02:14:58.709Z,70.14
2022-09-20T02:17:39.417Z,70.37
2022-09-20T02:20:24.547Z,70.27
2022-09-20T02:23:13.451Z,70.26
2022-09-20T02:25:48.960Z,70.31
2022-09-20T02:28:57.139Z,70.28
2022-09-20T02:31:32.634Z,70.56
2022-09-20T02:34:23.342Z,70.42
2022-09-20T02:37:14.229Z,70.49
2022-09-20T02:39:57.535Z,70.60
2022-09-20T02:42:35.247Z,70.64
2022-09-20T02:45:14.088Z,70.58
2022-09-20T02:47:43.528Z,70.49
2022-09-20T02:50:38.454Z,70.65
2022-09-20T02:53:37.216Z,70.82
2022-09-20T02:56:41.065Z,70.89
2022-09-20T02:59:29.973Z,70.57
2022-09-20T03:02:28.588Z,70.72
2022-09-20T03:05:18.832Z,70.68
2022-09-20T03:08:22.648Z,70.65
2022-09-20T03:10:52.133Z,70.83
2022-09-20T03:13:48.798Z,70.79
2022-09-20T03:16:33.973Z,70.96
2022-09-20T03:19:09.437Z,71.00
2022-09-20T03:21:35.916Z,71.20
2022-09-20T03:24:14.539Z,71.08
2022-09-20T03:26:56.686Z,71.13
2022-09-20T03:29:26.541Z,71.23
2022-09-20T03:32:19.394Z,71.19
2022-09-20T03:34:51.841Z,71.60
2022-09-20T03:37:37.558Z,71.36
2022-09-20T03:40:10.152Z,71.52
2022-09-20T03:42:48.202Z,71.75
2022-09-20T03:45:37.982Z,71.81
2022-09-20T03:48:53.768Z,71.99
2022-09-20T03:51:41.362Z,72.40
2022-09-20T03:54:29.378Z,72.27
2022-09-20T03:57:04.392Z,72.49
2022-09-20T03:59:30.845Z,72.50
2022-09-20T04:02:06.737Z,72.76
2022-09-20T04:04:44.451Z,72.56
2022-09-20T04:07:20.077Z,72.78
2022-09-20T04:09:54.771Z,72.83
2022-09-20T04:12:40.053Z,73.02
2022-09-20T04:15:12.945Z,72.98
2022-09-20T04:17:49.169Z,73.13
2022-09-20T04:20:50.890Z,72.90
2022-09-20T04:23:54.946Z,73.04
2022-09-20T04:26:28.894Z,73.35
2022-09-20T04:29:05.593Z,73.16
2022-09-20T04:31:41.176Z,73.40
2022-09-20T04:34:23.065Z,73.36
2022-09-20T04:37:02.757Z,73.50
2022-09-20T04:39:50.979Z,73.58
2022-09-20T04:42:34.529Z,73.51
2022-09-20T04:45:12.625Z,73.68
2022-09-20T04:47:47.842Z,74.02
2022-09-20T04:50:36.881Z,73.97
2022-09-20T04:53:59.043Z,74.29
2022-09-20T04:56:51.126Z,73.98
2022-09-20T04:59:40.070Z,74.04
2022-09-20T05:02:37.547Z,74.27
2022-09-20T05:05:52.020Z,74.19
2022-09-20T05:08:36.953Z,74.28
2022-09-20T05:11:07.017Z,74.23
2022-09-20T05:14:17.294Z,74.44
2022-09-20T05:17:14.890Z,74.71
2022-09-20T05:20:05.904Z,74.45
2022-09-20T05:22:54.750Z,74.47
2022-09-20T05:25:54.961Z,74.60
2022-09-20T05:28:53.727Z,74.61
2022-09-20T05:31:58.844Z,74.77
2022-09-20T05:34:44.080Z,74.94
2022-09-20T05:37:23.041Z,74.79
2022-09-20T05:40:06.735Z,74.28
2022-09-20T05:42:54.249Z,74.37
2022-09-20T05:45:47.395Z,74.38
2022-09-20T05:48:20.245Z,74.34
2022-09-20T05:51:04.065Z,74.35
2022-09-20T05:53:33.730Z,74.30
2022-09-20T05:56:05.377Z,74.05
2022-09-20T05:58:35.026Z,74.05
2022-09-20T06:01:12.811Z,73.95
2022-09-20T06:03:55.689Z,73.91
2022-09-20T06:06:22.642Z,73.69
2022-09-20T06:08:59.650Z,74.06
2022-09-20T06:11:29.279Z,73.83
2022-09-20T06:14:15.172Z,73.48
2022-09-20T06:16:56.125Z,73.29
2022-09-20T06:19:32.974Z,73.25
2022-09-20T06:22:08.661Z,72.87
2022-09-20T06:24:48.662Z,72.69
2022-09-20T06:27:26.320Z,72.67
2022-09-20T06:30:02.553Z,72.44
2022-09-20T06:32:29.072Z,72.34
2022-09-20T06:34:55.647Z,72.39
2022-09-20T06:38:25.069Z,72.03
2022-09-20T06:41:11.275Z,72.29
2022-09-20T06:43:40.594Z,72.24
2022-09-20T06:46:07.830Z,71.82
2022-09-20T06:48:34.446Z,71.76
2022-09-20T06:51:01.681Z,71.83
2022-09-20T06:53:32.497Z,71.68
2022-09-20T06:56:00.372Z,71.72
2022-09-20T06:58:26.865Z,71.32
2022-09-20T07:00:53.554Z,70.90
2022-09-20T07:03:20.108Z,70.79
2022-09-20T07:05:47.204Z,70.52
2022-09-20T07:08:13.829Z,70.53
2022-09-20T07:10:40.361Z,70.54
2022-09-20T07:13:06.910Z,70.57
2022-09-20T07:15:34.837Z,70.45
2022-09-20T07:18:01.373Z,70.73
2022-09-20T07:20:28.310Z,71.03
2022-09-20T07:22:54.810Z,70.85
2022-09-20T07:25:21.973Z,71.08
2022-09-20T07:27:50.382Z,71.00
2022-09-20T07:30:18.649Z,71.30
2022-09-20T07:32:45.208Z,71.22
2022-09-20T07:35:12.829Z,71.45
2022-09-20T07:37:42.775Z,71.74
2022-09-20T07:40:10.995Z,71.87
2022-09-20T07:42:37.860Z,71.75
2022-09-20T07:45:04.824Z,72.02
2022-09-20T07:47:33.120Z,72.33
2022-09-20T07:49:59.662Z,72.29
2022-09-20T07:52:26.170Z,72.21
2022-09-20T07:54:52.818Z,71.96
2022-09-20T07:57:19.350Z,71.88
2022-09-20T07:59:45.822Z,71.86
2022-09-20T08:02:16.422Z,71.93
2022-09-20T08:04:43.386Z,72.05
2022-09-20T08:07:10.603Z,71.62
2022-09-20T08:09:37.083Z,71.67
2022-09-20T08:14:52.510Z,70.83
2022-09-20T08:17:19.678Z,70.30
2022-09-20T08:19:46.332Z,69.70
2022-09-20T08:22:13.036Z,68.78
2022-09-20T08:24:39.628Z,68.14
2022-09-20T08:27:06.383Z,67.54
2022-09-20T08:29:33.190Z,66.69
2022-09-20T08:32:01.528Z,65.96
2022-09-20T08:34:28.190Z,64.91
2022-09-20T08:36:56.601Z,64.37
2022-09-20T08:42:23.070Z,63.59
2022-09-20T08:45:01.447Z,63.21
2022-09-20T08:47:35.818Z,62.11
2022-09-20T08:50:10.002Z,62.01
2022-09-20T08:52:39.869Z,62.05
2022-09-20T08:55:17.230Z,61.86
2022-09-20T08:57:49.033Z,61.86
2022-09-20T09:00:18.453Z,62.12
2022-09-20T09:02:45.918Z,61.92
2022-09-20T09:05:44.725Z,61.78
2022-09-20T09:08:17.597Z,61.07
2022-09-20T09:11:09.658Z,60.48
2022-09-20T09:14:01.382Z,59.95
2022-09-20T09:16:35.290Z,58.75
2022-09-20T09:19:36.046Z,58.39
2022-09-20T09:22:05.532Z,57.36
2022-09-20T09:24:32.230Z,56.99
2022-09-20T09:27:16.591Z,56.93
2022-09-20T09:29:52.061Z,56.06
2022-09-20T09:32:24.865Z,55.72
2022-09-20T09:34:51.345Z,54.72
2022-09-20T09:37:31.091Z,54.88
2022-09-20T09:40:18.611Z,54.34
2022-09-20T09:43:02.282Z,53.68
2022-09-20T09:45:28.788Z,53.09
2022-09-20T09:47:56.824Z,52.97
2022-09-20T09:50:26.939Z,52.70
2022-09-20T09:53:11.398Z,52.38
2022-09-20T09:55:52.002Z,52.57
2022-09-20T09:58:27.314Z,52.33
2022-09-20T10:00:55.613Z,51.95
2022-09-20T10:03:57.398Z,51.30
2022-09-20T10:06:45.385Z,50.56
2022-09-20T10:09:19.229Z,50.58
2022-09-20T10:11:52.572Z,50.40
2022-09-20T10:14:25.022Z,50.56
2022-09-20T10:17:10.243Z,49.69
2022-09-20T10:19:58.718Z,49.72
2022-09-20T10:22:35.661Z,49.14
2022-09-20T10:25:20.150Z,48.90
2022-09-20T10:28:08.264Z,48.95
2022-09-20T10:31:01.562Z,48.88
2022-09-20T10:33:49.480Z,49.11
2022-09-20T10:36:16.843Z,49.09
2022-09-20T10:39:10.934Z,49.65
2022-09-20T10:42:32.266Z,50.13
2022-09-20T10:45:04.485Z,50.20
2022-09-20T10:47:57.138Z,49.98
2022-09-20T10:50:44.757Z,49.82
2022-09-20T10:53:36.020Z,49.99
2022-09-20T10:56:21.396Z,50.44
2022-09-20T10:59:17.625Z,51.15
2022-09-20T11:02:02.763Z,51.21
2022-09-20T11:04:47.748Z,51.43
2022-09-20T11:07:19.290Z,52.31
2022-09-20T11:09:55.396Z,52.65
2022-09-20T11:12:42.965Z,53.10
2022-09-20T11:15:19.325Z,53.99
2022-09-20T11:18:03.961Z,54.84
2022-09-20T11:20:37.409Z,55.51
2022-09-20T11:23:16.918Z,56.44
2022-09-20T11:25:51.649Z,57.14
2022-09-20T11:28:42.418Z,57.44
2022-09-20T11:31:22.068Z,57.80
2022-09-20T11:33:54.497Z,58.37
2022-09-20T11:36:27.634Z,58.47
2022-09-20T11:39:21.698Z,59.07
2022-09-20T11:41:52.078Z,59.18
2022-09-20T11:44:20.007Z,59.73
2022-09-20T11:46:56.312Z,59.95
2022-09-20T11:49:28.487Z,60.63
2022-09-20T11:52:16.377Z,60.92
2022-09-20T11:54:48.592Z,61.71
2022-09-20T11:57:16.746Z,62.41
2022-09-20T11:59:51.746Z,62.74
2022-09-20T12:02:24.937Z,63.45
2022-09-20T12:04:53.479Z,63.19
2022-09-20T12:07:25.193Z,62.85
2022-09-20T12:10:00.830Z,63.00
2022-09-20T12:12:47.141Z,63.37
2022-09-20T12:15:25.907Z,63.23
2022-09-20T12:17:52.620Z,63.96
2022-09-20T12:20:42.332Z,64.11
2022-09-20T12:23:40.508Z,63.74
2022-09-20T12:26:11.027Z,63.33
2022-09-20T12:28:39.075Z,63.38
2022-09-20T12:31:29.705Z,63.85
2022-09-20T12:34:02.180Z,63.39
2022-09-20T12:36:37.389Z,62.82
2022-09-20T12:39:06.993Z,62.98
2022-09-20T12:41:55.356Z,63.06
2022-09-20T12:44:40.463Z,62.94
2022-09-20T12:47:09.934Z,62.97
2022-09-20T12:50:01.782Z,62.82
2022-09-20T12:52:58.533Z,63.09
2022-09-20T12:55:34.141Z,63.13
2022-09-20T12:58:15.210Z,63.59
2022-09-20T13:00:46.617Z,63.59
2022-09-20T13:03:21.746Z,62.96
2022-09-20T13:05:53.964Z,62.06
2022-09-20T13:08:30.160Z,60.53
2022-09-20T13:11:02.165Z,60.15
2022-09-20T13:13:33.509Z,59.50
2022-09-20T13:16:01.675Z,58.43
2022-09-20T13:18:29.537Z,57.34
2022-09-20T13:20:57.881Z,56.93
2022-09-20T13:23:29.461Z,57.13
2022-09-20T13:25:58.184Z,56.60
2022-09-20T13:28:32.057Z,56.89
2022-09-20T13:31:24.145Z,56.99
2022-09-20T13:33:51.792Z,55.78
2022-09-20T13:36:30.216Z,54.87
2022-09-20T13:38:58.646Z,55.06
2022-09-20T13:41:29.223Z,54.60
2022-09-20T13:43:56.114Z,53.81
2022-09-20T13:46:29.973Z,53.66
2022-09-20T13:49:15.329Z,53.94
2022-09-20T13:51:41.869Z,53.69
2022-09-20T13:54:22.553Z,52.33
2022-09-20T13:56:51.468Z,55.70
2022-09-20T13:59:19.562Z,58.86
2022-09-20T14:01:55.793Z,54.38
2022-09-20T14:04:24.552Z,52.26
2022-09-20T14:06:54.716Z,50.78
2022-09-20T14:09:31.128Z,50.11
2022-09-20T14:11:59.093Z,48.89
2022-09-20T14:14:26.599Z,49.60
2022-09-20T14:16:56.471Z,49.05
2022-09-20T14:19:32.931Z,48.51
2022-09-20T14:22:04.059Z,47.45
2022-09-20T14:24:35.705Z,47.51
2022-09-20T14:27:19.860Z,48.42
2022-09-20T14:29:51.153Z,48.63
2022-09-20T14:32:28.361Z,47.77
2022-09-20T14:35:12.967Z,47.71
2022-09-20T14:37:50.451Z,48.52
2022-09-20T14:40:22.950Z,48.95
2022-09-20T14:43:04.220Z,49.10
2022-09-20T14:45:33.724Z,49.78
2022-09-20T14:48:09.367Z,49.38
2022-09-20T14:50:40.656Z,49.13
2022-09-20T14:53:10.790Z,49.37
2022-09-20T14:55:38.854Z,48.84
2022-09-20T14:58:10.937Z,48.73
2022-09-20T15:00:54.323Z,49.24
2022-09-20T15:03:31.075Z,49.16
2022-09-20T15:05:58.094Z,49.61
2022-09-20T15:08:24.855Z,50.33
2022-09-20T15:10:51.585Z,50.35
2022-09-20T15:13:18.353Z,50.78
2022-09-20T15:15:49.664Z,51.09
2022-09-20T15:18:22.364Z,51.89
2022-09-20T15:20:50.345Z,51.88
2022-09-20T15:23:17.233Z,52.04
2022-09-20T15:25:44.281Z,52.88
2022-09-20T15:28:16.682Z,53.14
2022-09-20T15:30:48.146Z,53.09
2022-09-20T15:33:15.142Z,53.49
2022-09-20T15:35:43.127Z,53.48
2022-09-20T15:38:11.775Z,53.98
2022-09-20T15:40:42.786Z,54.13
2022-09-20T15:43:13.321Z,53.71
2022-09-20T15:45:51.642Z,54.49
2022-09-20T15:48:22.331Z,53.76
2022-09-20T15:51:10.952Z,53.90
2022-09-20T15:53:40.975Z,53.65
2022-09-20T15:56:21.021Z,54.14
2022-09-20T15:58:59.160Z,54.53
2022-09-20T16:01:36.890Z,55.00
2022-09-20T16:04:10.651Z,55.64
2022-09-20T16:06:37.931Z,56.10
2022-09-20T16:09:04.826Z,57.76
2022-09-20T16:11:31.485Z,57.61
2022-09-20T16:13:59.582Z,57.26
2022-09-20T16:16:28.638Z,57.77
2022-09-20T16:19:14.307Z,57.95
2022-09-20T16:21:42.852Z,58.38
2022-09-20T16:24:12.401Z,58.48
2022-09-20T16:26:39.859Z,58.26
2022-09-20T16:29:11.198Z,58.34
2022-09-20T16:31:42.017Z,58.43
2022-09-20T16:34:19.802Z,59.29
2022-09-20T16:36:51.476Z,58.89
2022-09-20T16:39:19.148Z,59.17
2022-09-20T16:41:47.868Z,59.03
2022-09-20T16:44:15.718Z,59.44
2022-09-20T16:46:42.186Z,59.68
2022-09-20T16:49:11.520Z,59.69
2022-09-20T16:51:40.374Z,59.78
2022-09-20T16:54:11.675Z,61.63
2022-09-20T16:56:40.430Z,63.64
2022-09-20T16:59:10.808Z,61.97
2022-09-20T17:01:38.764Z,61.89
2022-09-20T17:04:06.633Z,61.36
2022-09-20T17:06:34.853Z,61.43
2022-09-20T17:09:01.817Z,62.93
2022-09-20T17:11:30.813Z,62.57
2022-09-20T17:13:58.036Z,62.04
2022-09-20T17:16:27.919Z,61.61
2022-09-20T17:18:59.496Z,61.15
2022-09-20T17:21:28.111Z,61.04
2022-09-20T17:23:57.071Z,61.11
2022-09-20T17:26:27.235Z,61.20
2022-09-20T17:28:58.953Z,61.07
2022-09-20T17:31:33.913Z,61.09
2022-09-20T17:34:02.334Z,61.20
2022-09-20T17:36:31.561Z,61.15
2022-09-20T17:39:03.864Z,60.93
2022-09-20T17:41:32.791Z,61.05
2022-09-20T17:44:00.690Z,60.84
2022-09-20T17:46:31.580Z,60.99
2022-09-20T17:49:03.858Z,61.26
2022-09-20T17:51:35.831Z,61.46
2022-09-20T17:54:02.830Z,62.04
2022-09-20T17:56:31.300Z,62.00
2022-09-20T17:58:59.621Z,62.60
2022-09-20T18:01:27.867Z,62.82
2022-09-20T18:03:57.204Z,62.94
2022-09-20T18:06:26.726Z,63.21
2022-09-20T18:09:05.222Z,63.53
2022-09-20T18:11:42.089Z,63.63
2022-09-20T18:14:13.500Z,63.18
2022-09-20T18:16:40.522Z,63.12
2022-09-20T18:19:08.196Z,63.05
2022-09-20T18:21:36.194Z,63.03
2022-09-20T18:24:06.031Z,63.32
2022-09-20T18:26:33.382Z,63.06
2022-09-20T18:29:05.176Z,63.03
2022-09-20T18:31:37.741Z,63.14
2022-09-20T18:34:06.815Z,63.00
2022-09-20T18:36:36.134Z,62.85
2022-09-20T18:39:03.332Z,63.05
2022-09-20T18:41:35.042Z,62.88
2022-09-20T18:44:03.997Z,63.27
2022-09-20T18:46:31.190Z,62.89
2022-09-20T18:49:01.348Z,63.05
2022-09-20T18:51:31.803Z,63.16
2022-09-20T18:54:00.373Z,63.31
2022-09-20T18:56:32.472Z,63.64
2022-09-20T18:59:01.673Z,64.32
2022-09-20T19:01:56.373Z,64.22
2022-09-20T19:04:46.012Z,64.91
2022-09-20T19:07:15.282Z,64.95
2022-09-20T19:09:45.955Z,64.90
2022-09-20T19:12:23.390Z,64.66
2022-09-20T19:14:49.859Z,64.75
2022-09-20T19:17:22.525Z,64.54
2022-09-20T19:20:04.281Z,64.77
2022-09-20T19:22:55.979Z,64.91
2022-09-20T19:25:39.540Z,65.05
2022-09-20T19:28:08.916Z,65.01
2022-09-20T19:30:35.902Z,64.83
2022-09-20T19:33:02.919Z,64.81
2022-09-20T19:35:35.341Z,64.91
2022-09-20T19:38:17.870Z,64.69
2022-09-20T19:40:50.738Z,65.13
2022-09-20T19:43:31.259Z,64.98
2022-09-20T19:46:19.154Z,65.04
2022-09-20T19:49:08.205Z,65.17
2022-09-20T19:51:37.673Z,65.32
2022-09-20T19:54:05.067Z,65.16
2022-09-20T19:56:43.719Z,65.29
2022-09-20T19:59:10.674Z,65.23
2022-09-20T20:01:37.742Z,65.57
2022-09-20T20:04:04.907Z,65.99
2022-09-20T20:06:49.851Z,66.04
2022-09-20T20:09:46.890Z,65.83
2022-09-20T20:12:42.386Z,66.44
2022-09-20T20:15:42.943Z,66.33
2022-09-20T20:18:29.222Z,66.35
2022-09-20T20:20:57.841Z,66.45
2022-09-20T20:23:33.206Z,66.57
2022-09-20T20:26:19.407Z,66.49
2022-09-20T20:28:46.046Z,66.41
2022-09-20T20:31:12.696Z,66.98
2022-09-20T20:33:39.872Z,67.04
2022-09-20T20:36:11.638Z,66.94
2022-09-20T20:38:40.396Z,67.17
2022-09-20T20:41:12.021Z,67.20
2022-09-20T20:43:43.289Z,67.02
2022-09-20T20:46:14.414Z,67.33
2022-09-20T20:48:41.909Z,67.28
2022-09-20T20:51:09.686Z,67.02
2022-09-20T20:53:39.718Z,66.68
2022-09-20T20:56:09.817Z,66.99
2022-09-20T20:58:39.969Z,66.50
2022-09-20T21:01:23.373Z,66.87
2022-09-20T21:03:54.763Z,66.30
2022-09-20T21:06:26.495Z,67.10
2022-09-20T21:08:53.554Z,67.20
2022-09-20T21:11:25.665Z,66.99
2022-09-20T21:13:53.979Z,67.60
2022-09-20T21:16:23.396Z,67.05
2022-09-20T21:18:50.624Z,67.14
2022-09-20T21:21:17.499Z,67.43
2022-09-20T21:23:48.443Z,67.23
2022-09-20T21:26:15.980Z,67.43
2022-09-20T21:28:45.716Z,67.36
2022-09-20T21:31:13.364Z,67.58
2022-09-20T21:33:42.432Z,67.75
2022-09-20T21:36:13.816Z,67.67
2022-09-20T21:38:41.980Z,68.06
2022-09-20T21:41:14.995Z,68.19
2022-09-20T21:43:43.357Z,68.19
2022-09-20T21:46:17.949Z,68.14
2022-09-20T21:48:45.739Z,68.33
2022-09-20T21:51:14.776Z,68.03
2022-09-20T21:53:41.816Z,68.30
2022-09-20T21:56:11.630Z,68.17
2022-09-20T21:58:40.079Z,68.16
2022-09-20T22:01:11.507Z,68.28
2022-09-20T22:03:46.630Z,68.06
2022-09-20T22:06:25.453Z,67.88
2022-09-20T22:08:58.473Z,67.90
2022-09-20T22:11:31.193Z,68.53
2022-09-20T22:13:59.327Z,68.64
2022-09-20T22:16:33.676Z,68.82
2022-09-20T22:19:01.070Z,68.63
2022-09-20T22:21:28.904Z,68.50
2022-09-20T22:24:01.593Z,68.70
2022-09-20T22:26:34.373Z,68.65
2022-09-20T22:29:02.119Z,69.06
2022-09-20T22:31:30.777Z,69.00
2022-09-20T22:34:02.506Z,69.06
2022-09-20T22:36:34.902Z,68.97
2022-09-20T22:39:02.349Z,69.12
2022-09-20T22:41:29.125Z,69.11
2022-09-20T22:43:57.059Z,69.50
2022-09-20T22:46:26.542Z,69.50
2022-09-20T22:48:53.297Z,69.35
2022-09-20T22:51:25.193Z,69.55
2022-09-20T22:53:52.739Z,69.99
2022-09-20T22:56:29.805Z,70.05
2022-09-20T22:59:04.079Z,69.98
2022-09-20T23:01:33.655Z,69.76
2022-09-20T23:04:09.158Z,69.79
2022-09-20T23:06:44.371Z,69.30
2022-09-20T23:09:14.051Z,69.65
2022-09-20T23:11:44.625Z,69.61
2022-09-20T23:14:13.342Z,69.50
2022-09-20T23:16:40.816Z,69.59
2022-09-20T23:19:08.637Z,69.48
2022-09-20T23:21:38.399Z,69.79
2022-09-20T23:24:07.753Z,69.51
2022-09-20T23:26:36.031Z,69.83
2022-09-20T23:29:09.045Z,69.77
2022-09-20T23:31:39.492Z,69.63
2022-09-20T23:34:08.110Z,70.25
2022-09-20T23:36:38.046Z,70.42
2022-09-20T23:39:06.287Z,70.17
2022-09-20T23:41:33.819Z,70.27
2022-09-20T23:44:00.699Z,70.11
2022-09-20T23:46:27.760Z,70.32
2022-09-20T23:48:54.669Z,70.61
2022-09-20T23:51:24.414Z,70.45
2022-09-20T23:53:52.171Z,70.59
2022-09-20T23:56:19.798Z,70.79
2022-09-20T23:58:47.172Z,70.84
